Terminal Aerodrome Forecast
Issued by NWS

Home | Current Version | Previous Version | Text Only | Print | Product List | Glossary On
Versions: 1 2 3 4 5 6 7 8 9 10 11 12 13 14
554
FTUS42 KTBW 262124 AAA
TAFPGD
TAF AMD
KPGD 262124Z 2621/2718 22008KT P6SM VCTS SCT035CB BKN100
      TEMPO 2621/2623 VRB12G24KT 2SM +TSRA BKN020CB
     FM270300 VRB03KT P6SM FEW040 SCT100 BKN250
     FM271400 24005KT P6SM FEW030 SCT250=

USA.gov is the U.S. government's official web portal to all federal, state and local government web resources and services.